If you wish to contribute or participate in the discussions about articles you are invited to join SKYbrary as a registered user

 Actions

Alcantarilla Airport

From SKYbrary Wiki

LERI
Airport
ICAO: LERI
Summary
Name Alcantarilla Airport
Region Europe
Territory Spain ES.gif
Location
Serving Murcia
Elevation 76.2 m
250 ft
250 ft76.2 m
Type medium airport
Coordinates 37° 57' 4.00" N, 1° 13' 49.15" W
Runways
Designator Length Width Surface ROPS
7/25 938 m3,077.428 ft
45 m147.638 ft
ASP /


METAR
Observation LERI 211200Z 09012KT 9999 SCT030 SCT045 27/19 Q1019 NOSIG
Station Murcia / Alcantarilla
Date/Time 21 August 2019 12:00:00
Wind direction 90°
Wind speed 12 kts
Lowest cloud amount scattered clouds
Temperature 27°C
Dew point 19°C
Humidity 61%
QNH 1019 hPa
Weather condition n/a